createdAt,value
2022-09-22T00:03:04.543Z,3.40
2022-09-22T00:08:07.664Z,3.40
2022-09-22T00:13:12.092Z,3.30
2022-09-22T00:18:15.480Z,3.20
2022-09-22T00:23:44.327Z,3.10
2022-09-22T00:28:51.230Z,3.10
2022-09-22T00:33:55.580Z,3.10
2022-09-22T00:38:59.737Z,3.10
2022-09-22T00:44:34.368Z,3.00
2022-09-22T00:49:45.386Z,3.00
2022-09-22T00:54:49.628Z,2.90
2022-09-22T00:59:55.873Z,2.90
2022-09-22T01:04:59.606Z,2.90
2022-09-22T01:10:02.803Z,2.90
2022-09-22T01:15:18.799Z,3.00
2022-09-22T01:21:10.456Z,3.10
2022-09-22T01:26:39.809Z,3.00
2022-09-22T01:31:53.009Z,2.90
2022-09-22T01:37:01.065Z,2.80
2022-09-22T01:42:08.666Z,2.80
2022-09-22T01:47:19.873Z,3.00
2022-09-22T01:52:26.715Z,3.20
2022-09-22T01:57:32.924Z,3.10
2022-09-22T02:02:43.936Z,3.00
2022-09-22T02:07:51.072Z,2.80
2022-09-22T02:12:55.507Z,2.70
2022-09-22T02:18:06.400Z,2.50
2022-09-22T02:23:09.778Z,2.40
2022-09-22T02:28:16.426Z,2.30
2022-09-22T02:33:23.552Z,2.20
2022-09-22T02:38:33.431Z,2.10
2022-09-22T02:43:41.791Z,2.10
2022-09-22T02:48:49.894Z,2.10
2022-09-22T02:53:53.291Z,2.00
2022-09-22T02:58:58.461Z,1.90
2022-09-22T03:04:03.749Z,1.90
2022-09-22T03:09:07.232Z,1.80
2022-09-22T03:14:10.472Z,1.80
2022-09-22T03:19:17.030Z,1.70
2022-09-22T03:24:20.175Z,1.70
2022-09-22T03:29:23.261Z,1.60
2022-09-22T03:34:27.797Z,1.60
2022-09-22T03:39:30.941Z,1.60
2022-09-22T03:44:34.296Z,1.60
2022-09-22T03:49:38.888Z,1.60
2022-09-22T03:54:42.130Z,1.50
2022-09-22T03:59:45.529Z,1.40
2022-09-22T04:04:50.088Z,1.50
2022-09-22T04:09:53.405Z,1.50
2022-09-22T04:14:56.583Z,1.40
2022-09-22T04:20:01.801Z,1.40
2022-09-22T04:25:05.404Z,1.40
2022-09-22T04:30:10.123Z,1.30
2022-09-22T04:35:14.802Z,1.30
2022-09-22T04:45:48.797Z,1.30
2022-09-22T04:50:53.417Z,1.30
2022-09-22T04:55:56.662Z,1.30
2022-09-22T05:01:04.039Z,1.20
2022-09-22T05:06:09.175Z,1.10
2022-09-22T05:11:12.404Z,1.10
2022-09-22T05:16:16.088Z,1.10
2022-09-22T05:21:20.808Z,1.10
2022-09-22T05:26:24.759Z,1.10
2022-09-22T05:31:29.219Z,1.10
2022-09-22T05:36:33.776Z,1.20
2022-09-22T05:41:36.894Z,1.40
2022-09-22T05:46:42.069Z,1.60
2022-09-22T05:51:50.784Z,1.60
2022-09-22T05:56:54.024Z,1.70
2022-09-22T06:01:59.654Z,1.80
2022-09-22T06:07:05.687Z,2.00
2022-09-22T06:12:09.403Z,2.10
2022-09-22T06:17:13.545Z,2.30
2022-09-22T06:22:18.795Z,2.50
2022-09-22T06:27:22.025Z,2.70
2022-09-22T06:32:25.353Z,3.70
2022-09-22T06:37:30.248Z,8.70
2022-09-22T06:42:33.379Z,14.30
2022-09-22T06:47:36.547Z,17.80
2022-09-22T06:52:41.064Z,19.60
2022-09-22T06:57:44.236Z,20.20
2022-09-22T07:02:47.455Z,19.10
2022-09-22T07:07:51.973Z,17.80
2022-09-22T07:12:55.611Z,17.80
2022-09-22T07:17:58.658Z,15.70
2022-09-22T07:23:03.177Z,13.10
2022-09-22T07:28:06.665Z,13.30
2022-09-22T07:33:09.822Z,13.10
2022-09-22T07:38:14.321Z,12.70
2022-09-22T07:43:17.368Z,11.70
2022-09-22T07:48:42.603Z,10.60
2022-09-22T07:53:48.816Z,10.20
2022-09-22T07:58:53.545Z,9.80
2022-09-22T08:03:57.997Z,9.90
2022-09-22T08:09:07.033Z,10.10
2022-09-22T08:14:13.350Z,11.00
2022-09-22T08:19:16.738Z,13.90
2022-09-22T08:24:23.091Z,17.10
2022-09-22T08:29:26.834Z,18.90
2022-09-22T08:34:33.058Z,20.30
2022-09-22T08:39:38.377Z,20.80
2022-09-22T08:44:50.595Z,21.00
2022-09-22T08:50:11.286Z,21.60
2022-09-22T08:55:21.178Z,22.20
2022-09-22T09:06:04.316Z,20.80
2022-09-22T09:11:21.187Z,20.50
2022-09-22T09:16:45.874Z,20.10
2022-09-22T09:21:52.846Z,20.70
2022-09-22T09:27:01.192Z,20.70
2022-09-22T09:32:14.610Z,20.60
2022-09-22T09:37:19.190Z,20.90
2022-09-22T09:42:31.530Z,20.60
2022-09-22T09:47:59.090Z,20.50
2022-09-22T09:53:02.859Z,20.10
2022-09-22T09:58:10.842Z,19.20
2022-09-22T10:03:17.349Z,18.50
2022-09-22T10:08:24.533Z,17.90
2022-09-22T10:13:36.536Z,17.10
2022-09-22T10:18:41.264Z,16.80
2022-09-22T10:23:45.037Z,16.70
2022-09-22T10:29:18.650Z,17.00
2022-09-22T10:34:31.503Z,17.20
2022-09-22T10:39:41.167Z,17.10
2022-09-22T10:44:48.868Z,17.20
2022-09-22T10:50:29.029Z,17.50
2022-09-22T10:55:35.802Z,17.60
2022-09-22T11:00:41.983Z,17.60
2022-09-22T11:06:11.833Z,17.80
2022-09-22T11:11:38.889Z,17.90
2022-09-22T11:17:05.556Z,18.10
2022-09-22T11:22:33.033Z,17.80
2022-09-22T11:27:51.850Z,18.00
2022-09-22T11:33:44.916Z,18.20
2022-09-22T11:39:12.638Z,18.40
2022-09-22T11:44:41.296Z,18.20
2022-09-22T11:50:02.334Z,18.20
2022-09-22T11:55:23.452Z,18.30
2022-09-22T12:00:32.002Z,18.40
2022-09-22T12:05:44.788Z,18.50
2022-09-22T12:10:50.171Z,18.20
2022-09-22T12:21:23.575Z,18.30
2022-09-22T12:26:31.865Z,18.40
2022-09-22T12:31:37.103Z,18.50
2022-09-22T12:36:43.050Z,18.60
2022-09-22T12:41:53.023Z,18.60
2022-09-22T12:47:02.400Z,18.50
2022-09-22T12:52:38.043Z,18.30
2022-09-22T12:57:46.682Z,18.30
2022-09-22T13:02:50.496Z,18.40
2022-09-22T13:07:55.815Z,18.50
2022-09-22T13:13:12.550Z,18.90
2022-09-22T13:18:30.136Z,18.80
2022-09-22T13:23:34.702Z,18.80
2022-09-22T13:28:37.931Z,18.30
2022-09-22T13:33:41.342Z,18.60
2022-09-22T13:38:51.047Z,18.80
2022-09-22T13:43:57.496Z,18.80
2022-09-22T13:49:01.261Z,18.80
2022-09-22T13:54:07.180Z,18.60
2022-09-22T13:59:13.092Z,18.50
2022-09-22T14:04:24.583Z,18.50
2022-09-22T14:09:29.834Z,18.60
2022-09-22T14:14:32.925Z,18.70
2022-09-22T14:19:40.724Z,18.60
2022-09-22T14:24:49.147Z,18.50
2022-09-22T14:29:54.562Z,18.50
2022-09-22T14:34:59.588Z,18.20
2022-09-22T14:40:09.605Z,18.00
2022-09-22T14:45:21.139Z,17.80
2022-09-22T14:50:39.869Z,17.80
2022-09-22T14:55:46.563Z,17.90
2022-09-22T15:01:13.119Z,17.70
2022-09-22T15:06:16.584Z,17.70
2022-09-22T15:11:20.876Z,17.40
2022-09-22T15:16:41.519Z,17.50
2022-09-22T15:21:48.556Z,17.50
2022-09-22T15:26:54.743Z,17.50
2022-09-22T15:31:59.826Z,17.30
2022-09-22T15:37:04.332Z,17.10
2022-09-22T15:42:11.373Z,17.10
2022-09-22T15:47:18.935Z,17.00
2022-09-22T15:52:22.105Z,16.90
2022-09-22T15:57:26.729Z,16.80
2022-09-22T16:02:31.489Z,16.60
2022-09-22T16:07:38.622Z,16.40
2022-09-22T16:12:43.313Z,16.30
2022-09-22T16:17:47.324Z,16.20
2022-09-22T16:22:50.877Z,16.10
2022-09-22T16:27:55.397Z,15.90
2022-09-22T16:32:58.656Z,15.80
2022-09-22T16:38:01.997Z,15.70
2022-09-22T16:43:08.862Z,15.60
2022-09-22T16:48:12.043Z,15.40
2022-09-22T16:53:15.722Z,15.30
2022-09-22T16:58:20.310Z,15.10
2022-09-22T17:03:24.617Z,14.80
2022-09-22T17:08:27.818Z,14.60
2022-09-22T17:13:33.698Z,14.50
2022-09-22T17:18:39.472Z,14.30
2022-09-22T17:23:42.908Z,14.10
2022-09-22T17:28:47.526Z,13.90
2022-09-22T17:33:52.441Z,13.70
2022-09-22T17:38:57.614Z,13.40
2022-09-22T17:44:03.385Z,13.00
2022-09-22T17:49:24.307Z,12.70
2022-09-22T17:54:48.218Z,12.50
2022-09-22T17:59:56.592Z,12.40
2022-09-22T18:04:59.846Z,12.10
2022-09-22T18:10:03.580Z,11.90
2022-09-22T18:15:12.857Z,11.70
2022-09-22T18:20:18.257Z,11.60
2022-09-22T18:25:24.126Z,11.40
2022-09-22T18:30:28.870Z,11.20
2022-09-22T18:35:32.907Z,11.10
2022-09-22T18:40:36.181Z,10.90
2022-09-22T18:45:40.818Z,10.80
2022-09-22T18:50:44.743Z,10.60
2022-09-22T18:55:51.220Z,10.50
2022-09-22T19:00:56.113Z,10.50
2022-09-22T19:05:59.279Z,10.40
2022-09-22T19:11:02.362Z,10.30
2022-09-22T19:16:09.654Z,10.20
2022-09-22T19:21:15.562Z,10.10
2022-09-22T19:26:19.731Z,10.00
2022-09-22T19:31:24.444Z,9.90
2022-09-22T19:36:27.813Z,9.80
2022-09-22T19:41:30.967Z,9.70
2022-09-22T19:46:36.341Z,9.50
2022-09-22T19:51:41.354Z,9.30
2022-09-22T19:56:44.913Z,9.10
2022-09-22T20:01:51.118Z,8.80
2022-09-22T20:06:54.496Z,8.60
2022-09-22T20:11:57.660Z,8.40
2022-09-22T20:17:05.530Z,8.30
2022-09-22T20:22:28.167Z,8.40
2022-09-22T20:27:34.407Z,8.30
2022-09-22T20:32:38.979Z,8.20
2022-09-22T20:37:42.407Z,8.00
2022-09-22T20:42:45.727Z,7.80
2022-09-22T20:47:50.231Z,7.60
2022-09-22T20:52:53.723Z,7.40
2022-09-22T20:57:56.901Z,7.30
2022-09-22T21:03:01.962Z,7.20
2022-09-22T21:08:19.034Z,7.20
2022-09-22T21:13:22.102Z,7.00
2022-09-22T21:18:26.587Z,7.00
2022-09-22T21:23:30.064Z,6.90
2022-09-22T21:28:33.965Z,6.80
2022-09-22T21:33:38.474Z,6.70
2022-09-22T21:38:42.082Z,6.70
2022-09-22T21:43:45.567Z,6.60
2022-09-22T21:48:50.842Z,6.40
2022-09-22T21:53:55.743Z,6.40
2022-09-22T21:58:59.091Z,6.40
2022-09-22T22:04:04.990Z,6.30
2022-09-22T22:09:13.987Z,6.20
2022-09-22T22:14:19.333Z,6.10
2022-09-22T22:19:27.223Z,6.10
2022-09-22T22:24:36.062Z,5.90
2022-09-22T22:29:39.835Z,5.90
2022-09-22T22:34:44.415Z,5.80
2022-09-22T22:39:47.559Z,5.80
2022-09-22T22:44:50.679Z,5.70
2022-09-22T22:49:55.196Z,5.60
2022-09-22T22:54:58.325Z,5.60
2022-09-22T23:00:02.373Z,5.40
2022-09-22T23:05:08.561Z,5.40
2022-09-22T23:10:11.938Z,5.30
2022-09-22T23:15:15.124Z,5.20
2022-09-22T23:20:21.572Z,5.10
2022-09-22T23:25:25.265Z,5.00
2022-09-22T23:30:28.508Z,4.90
2022-09-22T23:35:33.253Z,4.80
2022-09-22T23:40:36.506Z,4.70
2022-09-22T23:45:40.218Z,4.70
2022-09-22T23:50:47.304Z,4.70
2022-09-22T23:55:51.427Z,4.70
